sensor_id;sensor_type;location;lat;lon;timestamp;temperature;humidity
11304;DHT22;5707;49.588;12.148;2024-02-16T00:00:26;1.70;99.90
11304;DHT22;5707;49.588;12.148;2024-02-16T00:02:52;1.70;99.90
11304;DHT22;5707;49.588;12.148;2024-02-16T00:05:17;1.70;99.90
11304;DHT22;5707;49.588;12.148;2024-02-16T00:07:43;1.70;99.90
11304;DHT22;5707;49.588;12.148;2024-02-16T00:10:09;1.70;99.90
11304;DHT22;5707;49.588;12.148;2024-02-16T00:12:36;1.70;99.90
11304;DHT22;5707;49.588;12.148;2024-02-16T00:15:02;1.70;99.90
11304;DHT22;5707;49.588;12.148;2024-02-16T00:17:28;1.60;99.90
11304;DHT22;5707;49.588;12.148;2024-02-16T00:19:56;1.60;99.90
11304;DHT22;5707;49.588;12.148;2024-02-16T00:22:23;1.50;99.90
11304;DHT22;5707;49.588;12.148;2024-02-16T00:24:48;1.40;99.90
11304;DHT22;5707;49.588;12.148;2024-02-16T00:27:15;1.40;99.90
11304;DHT22;5707;49.588;12.148;2024-02-16T00:29:41;1.40;99.90
11304;DHT22;5707;49.588;12.148;2024-02-16T00:32:07;1.30;99.90
11304;DHT22;5707;49.588;12.148;2024-02-16T00:34:36;1.30;99.90
11304;DHT22;5707;49.588;12.148;2024-02-16T00:37:02;1.30;99.90
11304;DHT22;5707;49.588;12.148;2024-02-16T00:39:29;1.30;99.90
11304;DHT22;5707;49.588;12.148;2024-02-16T00:41:55;1.20;99.90
11304;DHT22;5707;49.588;12.148;2024-02-16T00:44:20;1.10;99.90
11304;DHT22;5707;49.588;12.148;2024-02-16T00:46:46;1.10;99.90
11304;DHT22;5707;49.588;12.148;2024-02-16T00:49:11;1.00;99.90
11304;DHT22;5707;49.588;12.148;2024-02-16T00:51:37;1.00;99.90
11304;DHT22;5707;49.588;12.148;2024-02-16T00:54:03;1.00;99.90
11304;DHT22;5707;49.588;12.148;2024-02-16T00:56:30;1.00;99.90
11304;DHT22;5707;49.588;12.148;2024-02-16T00:58:55;1.00;99.90
11304;DHT22;5707;49.588;12.148;2024-02-16T01:01:21;1.00;99.90
11304;DHT22;5707;49.588;12.148;2024-02-16T01:03:48;1.10;99.90
11304;DHT22;5707;49.588;12.148;2024-02-16T01:06:14;1.20;99.90
11304;DHT22;5707;49.588;12.148;2024-02-16T01:08:40;1.30;99.90
11304;DHT22;5707;49.588;12.148;2024-02-16T01:11:06;1.40;99.90
11304;DHT22;5707;49.588;12.148;2024-02-16T01:13:32;1.40;99.90
11304;DHT22;5707;49.588;12.148;2024-02-16T01:15:58;1.50;99.90
11304;DHT22;5707;49.588;12.148;2024-02-16T01:18:25;1.70;99.90
11304;DHT22;5707;49.588;12.148;2024-02-16T01:20:51;1.90;99.90
11304;DHT22;5707;49.588;12.148;2024-02-16T01:23:17;1.90;99.90
11304;DHT22;5707;49.588;12.148;2024-02-16T01:25:42;2.00;99.90
11304;DHT22;5707;49.588;12.148;2024-02-16T01:28:08;2.10;99.90
11304;DHT22;5707;49.588;12.148;2024-02-16T01:30:34;2.20;99.90
11304;DHT22;5707;49.588;12.148;2024-02-16T01:32:59;2.30;99.90
11304;DHT22;5707;49.588;12.148;2024-02-16T01:35:25;2.40;99.90
11304;DHT22;5707;49.588;12.148;2024-02-16T01:37:50;2.50;99.90
11304;DHT22;5707;49.588;12.148;2024-02-16T01:40:16;2.60;99.90
11304;DHT22;5707;49.588;12.148;2024-02-16T01:42:47;2.60;99.90
11304;DHT22;5707;49.588;12.148;2024-02-16T01:45:13;2.70;99.90
11304;DHT22;5707;49.588;12.148;2024-02-16T01:47:39;2.70;99.90
11304;DHT22;5707;49.588;12.148;2024-02-16T01:50:06;2.60;99.90
11304;DHT22;5707;49.588;12.148;2024-02-16T01:52:32;2.60;99.90
11304;DHT22;5707;49.588;12.148;2024-02-16T01:54:59;2.50;99.90
11304;DHT22;5707;49.588;12.148;2024-02-16T01:57:28;2.40;99.90
11304;DHT22;5707;49.588;12.148;2024-02-16T01:59:53;2.50;99.90
11304;DHT22;5707;49.588;12.148;2024-02-16T02:02:19;2.50;99.90
11304;DHT22;5707;49.588;12.148;2024-02-16T02:04:45;2.50;99.90
11304;DHT22;5707;49.588;12.148;2024-02-16T02:07:12;2.60;99.90
11304;DHT22;5707;49.588;12.148;2024-02-16T02:09:37;2.60;99.90
11304;DHT22;5707;49.588;12.148;2024-02-16T02:12:03;2.60;99.90
11304;DHT22;5707;49.588;12.148;2024-02-16T02:14:29;2.60;99.90
11304;DHT22;5707;49.588;12.148;2024-02-16T02:16:54;2.50;99.90
11304;DHT22;5707;49.588;12.148;2024-02-16T02:19:20;2.50;99.90
11304;DHT22;5707;49.588;12.148;2024-02-16T02:21:45;2.50;99.90
11304;DHT22;5707;49.588;12.148;2024-02-16T02:24:11;2.60;99.90
11304;DHT22;5707;49.588;12.148;2024-02-16T02:26:38;2.60;99.90
11304;DHT22;5707;49.588;12.148;2024-02-16T02:29:03;2.60;99.90
11304;DHT22;5707;49.588;12.148;2024-02-16T02:31:30;2.60;99.90
11304;DHT22;5707;49.588;12.148;2024-02-16T02:33:55;2.60;99.90
11304;DHT22;5707;49.588;12.148;2024-02-16T02:36:21;2.60;99.90
11304;DHT22;5707;49.588;12.148;2024-02-16T02:38:47;2.60;99.90
11304;DHT22;5707;49.588;12.148;2024-02-16T02:41:12;2.60;99.90
11304;DHT22;5707;49.588;12.148;2024-02-16T02:43:41;2.60;99.90
11304;DHT22;5707;49.588;12.148;2024-02-16T02:46:07;2.60;99.90
11304;DHT22;5707;49.588;12.148;2024-02-16T02:48:33;2.70;99.90
11304;DHT22;5707;49.588;12.148;2024-02-16T02:50:58;2.70;99.90
11304;DHT22;5707;49.588;12.148;2024-02-16T02:53:29;2.70;99.90
11304;DHT22;5707;49.588;12.148;2024-02-16T02:55:55;2.70;99.90
11304;DHT22;5707;49.588;12.148;2024-02-16T02:58:20;2.70;99.90
11304;DHT22;5707;49.588;12.148;2024-02-16T03:00:46;2.60;99.90
11304;DHT22;5707;49.588;12.148;2024-02-16T03:03:11;2.60;99.90
11304;DHT22;5707;49.588;12.148;2024-02-16T03:05:44;2.60;99.90
11304;DHT22;5707;49.588;12.148;2024-02-16T03:08:10;2.60;99.90
11304;DHT22;5707;49.588;12.148;2024-02-16T03:10:36;2.60;99.90
11304;DHT22;5707;49.588;12.148;2024-02-16T03:13:02;2.70;99.90
11304;DHT22;5707;49.588;12.148;2024-02-16T03:15:29;2.70;99.90
11304;DHT22;5707;49.588;12.148;2024-02-16T03:17:55;2.70;99.90
11304;DHT22;5707;49.588;12.148;2024-02-16T03:20:21;2.70;99.90
11304;DHT22;5707;49.588;12.148;2024-02-16T03:22:47;2.70;99.90
11304;DHT22;5707;49.588;12.148;2024-02-16T03:25:13;2.80;99.90
11304;DHT22;5707;49.588;12.148;2024-02-16T03:27:40;2.80;99.90
11304;DHT22;5707;49.588;12.148;2024-02-16T03:30:07;2.80;99.90
11304;DHT22;5707;49.588;12.148;2024-02-16T03:32:33;2.80;99.90
11304;DHT22;5707;49.588;12.148;2024-02-16T03:34:58;2.80;99.90
11304;DHT22;5707;49.588;12.148;2024-02-16T03:37:24;2.80;99.90
11304;DHT22;5707;49.588;12.148;2024-02-16T03:39:50;2.80;99.90
11304;DHT22;5707;49.588;12.148;2024-02-16T03:42:16;2.90;99.90
11304;DHT22;5707;49.588;12.148;2024-02-16T03:44:43;3.00;99.90
11304;DHT22;5707;49.588;12.148;2024-02-16T03:47:09;3.00;99.90
11304;DHT22;5707;49.588;12.148;2024-02-16T03:49:35;3.00;99.90
11304;DHT22;5707;49.588;12.148;2024-02-16T03:52:01;3.00;99.90
11304;DHT22;5707;49.588;12.148;2024-02-16T03:54:27;3.00;99.90
11304;DHT22;5707;49.588;12.148;2024-02-16T03:56:55;3.10;99.90
11304;DHT22;5707;49.588;12.148;2024-02-16T03:59:21;3.10;99.90
11304;DHT22;5707;49.588;12.148;2024-02-16T04:01:49;3.20;99.90
11304;DHT22;5707;49.588;12.148;2024-02-16T04:04:15;3.30;99.90
11304;DHT22;5707;49.588;12.148;2024-02-16T04:06:40;3.20;99.90
11304;DHT22;5707;49.588;12.148;2024-02-16T04:09:06;3.20;99.90
11304;DHT22;5707;49.588;12.148;2024-02-16T04:11:32;3.10;99.90
11304;DHT22;5707;49.588;12.148;2024-02-16T04:13:58;3.10;99.90
11304;DHT22;5707;49.588;12.148;2024-02-16T04:16:24;3.10;99.90
11304;DHT22;5707;49.588;12.148;2024-02-16T04:18:50;3.20;99.90
11304;DHT22;5707;49.588;12.148;2024-02-16T04:21:16;3.10;99.90
11304;DHT22;5707;49.588;12.148;2024-02-16T04:23:42;3.10;99.90
11304;DHT22;5707;49.588;12.148;2024-02-16T04:26:08;3.00;99.90
11304;DHT22;5707;49.588;12.148;2024-02-16T04:28:34;2.90;99.90
11304;DHT22;5707;49.588;12.148;2024-02-16T04:31:00;2.90;99.90
11304;DHT22;5707;49.588;12.148;2024-02-16T04:33:25;2.80;99.90
11304;DHT22;5707;49.588;12.148;2024-02-16T04:35:51;2.70;99.90
11304;DHT22;5707;49.588;12.148;2024-02-16T04:38:17;2.80;99.90
11304;DHT22;5707;49.588;12.148;2024-02-16T04:40:43;2.90;99.90
11304;DHT22;5707;49.588;12.148;2024-02-16T04:43:08;2.80;99.90
11304;DHT22;5707;49.588;12.148;2024-02-16T04:45:35;2.80;99.90
11304;DHT22;5707;49.588;12.148;2024-02-16T04:48:04;2.90;99.90
11304;DHT22;5707;49.588;12.148;2024-02-16T04:50:33;2.90;99.90
11304;DHT22;5707;49.588;12.148;2024-02-16T04:53:00;2.80;99.90
11304;DHT22;5707;49.588;12.148;2024-02-16T04:55:28;2.80;99.90
11304;DHT22;5707;49.588;12.148;2024-02-16T04:57:55;2.80;99.90
11304;DHT22;5707;49.588;12.148;2024-02-16T05:00:21;2.80;99.90
11304;DHT22;5707;49.588;12.148;2024-02-16T05:02:46;2.80;99.90
11304;DHT22;5707;49.588;12.148;2024-02-16T05:05:12;2.80;99.90
11304;DHT22;5707;49.588;12.148;2024-02-16T05:07:38;2.70;99.90
11304;DHT22;5707;49.588;12.148;2024-02-16T05:10:08;2.70;99.90
11304;DHT22;5707;49.588;12.148;2024-02-16T05:12:34;2.80;99.90
11304;DHT22;5707;49.588;12.148;2024-02-16T05:15:00;3.00;99.90
11304;DHT22;5707;49.588;12.148;2024-02-16T05:17:25;3.00;99.90
11304;DHT22;5707;49.588;12.148;2024-02-16T05:19:51;3.00;99.90
11304;DHT22;5707;49.588;12.148;2024-02-16T05:22:19;2.90;99.90
11304;DHT22;5707;49.588;12.148;2024-02-16T05:24:47;2.90;99.90
11304;DHT22;5707;49.588;12.148;2024-02-16T05:27:12;2.90;99.90
11304;DHT22;5707;49.588;12.148;2024-02-16T05:29:39;2.80;99.90
11304;DHT22;5707;49.588;12.148;2024-02-16T05:32:04;2.70;99.90
11304;DHT22;5707;49.588;12.148;2024-02-16T05:34:30;2.70;99.90
11304;DHT22;5707;49.588;12.148;2024-02-16T05:37:03;2.70;99.90
11304;DHT22;5707;49.588;12.148;2024-02-16T05:39:29;2.60;99.90
11304;DHT22;5707;49.588;12.148;2024-02-16T05:41:57;2.50;99.90
11304;DHT22;5707;49.588;12.148;2024-02-16T05:44:23;2.40;99.90
11304;DHT22;5707;49.588;12.148;2024-02-16T05:46:48;2.30;99.90
11304;DHT22;5707;49.588;12.148;2024-02-16T05:49:15;2.20;99.90
11304;DHT22;5707;49.588;12.148;2024-02-16T05:51:43;2.20;99.90
11304;DHT22;5707;49.588;12.148;2024-02-16T05:54:29;2.20;99.90
11304;DHT22;5707;49.588;12.148;2024-02-16T05:56:54;2.10;99.90
11304;DHT22;5707;49.588;12.148;2024-02-16T05:59:20;2.20;99.90
11304;DHT22;5707;49.588;12.148;2024-02-16T06:01:47;2.20;99.90
11304;DHT22;5707;49.588;12.148;2024-02-16T06:04:13;2.30;99.90
11304;DHT22;5707;49.588;12.148;2024-02-16T06:06:38;2.30;99.90
11304;DHT22;5707;49.588;12.148;2024-02-16T06:09:04;2.50;99.90
11304;DHT22;5707;49.588;12.148;2024-02-16T06:11:31;2.60;99.90
11304;DHT22;5707;49.588;12.148;2024-02-16T06:13:57;2.60;99.90
11304;DHT22;5707;49.588;12.148;2024-02-16T06:16:22;2.70;99.90
11304;DHT22;5707;49.588;12.148;2024-02-16T06:18:48;2.70;99.90
11304;DHT22;5707;49.588;12.148;2024-02-16T06:21:14;2.70;99.90
11304;DHT22;5707;49.588;12.148;2024-02-16T06:23:41;2.80;99.90
11304;DHT22;5707;49.588;12.148;2024-02-16T06:26:06;2.90;99.90
11304;DHT22;5707;49.588;12.148;2024-02-16T06:28:32;3.00;99.90
11304;DHT22;5707;49.588;12.148;2024-02-16T06:30:58;3.00;99.90
11304;DHT22;5707;49.588;12.148;2024-02-16T06:33:23;3.10;99.90
11304;DHT22;5707;49.588;12.148;2024-02-16T06:35:49;3.20;99.90
11304;DHT22;5707;49.588;12.148;2024-02-16T06:38:15;3.30;99.90
11304;DHT22;5707;49.588;12.148;2024-02-16T06:40:41;3.30;99.90
11304;DHT22;5707;49.588;12.148;2024-02-16T06:43:06;3.40;99.90
11304;DHT22;5707;49.588;12.148;2024-02-16T06:45:32;3.50;99.90
11304;DHT22;5707;49.588;12.148;2024-02-16T06:47:57;3.60;99.90
11304;DHT22;5707;49.588;12.148;2024-02-16T06:50:23;3.70;99.90
11304;DHT22;5707;49.588;12.148;2024-02-16T06:52:49;3.80;99.90
11304;DHT22;5707;49.588;12.148;2024-02-16T06:55:14;3.90;99.90
11304;DHT22;5707;49.588;12.148;2024-02-16T06:57:40;3.90;99.90
11304;DHT22;5707;49.588;12.148;2024-02-16T07:00:08;3.90;99.90
11304;DHT22;5707;49.588;12.148;2024-02-16T07:02:34;4.00;99.90
11304;DHT22;5707;49.588;12.148;2024-02-16T07:05:00;4.10;99.90
11304;DHT22;5707;49.588;12.148;2024-02-16T07:07:25;4.10;99.90
11304;DHT22;5707;49.588;12.148;2024-02-16T07:09:51;4.10;99.90
11304;DHT22;5707;49.588;12.148;2024-02-16T07:12:16;4.20;99.90
11304;DHT22;5707;49.588;12.148;2024-02-16T07:14:42;4.20;99.90
11304;DHT22;5707;49.588;12.148;2024-02-16T07:17:09;4.20;99.90
11304;DHT22;5707;49.588;12.148;2024-02-16T07:19:35;4.20;99.90
11304;DHT22;5707;49.588;12.148;2024-02-16T07:22:01;4.30;99.90
11304;DHT22;5707;49.588;12.148;2024-02-16T07:24:27;4.30;99.90
11304;DHT22;5707;49.588;12.148;2024-02-16T07:26:52;4.30;99.90
11304;DHT22;5707;49.588;12.148;2024-02-16T07:29:18;4.40;99.90
11304;DHT22;5707;49.588;12.148;2024-02-16T07:31:44;4.50;99.90
11304;DHT22;5707;49.588;12.148;2024-02-16T07:34:10;4.50;99.90
11304;DHT22;5707;49.588;12.148;2024-02-16T07:36:36;4.60;99.90
11304;DHT22;5707;49.588;12.148;2024-02-16T07:39:02;4.70;99.90
11304;DHT22;5707;49.588;12.148;2024-02-16T07:41:30;4.80;99.90
11304;DHT22;5707;49.588;12.148;2024-02-16T07:43:55;4.80;99.90
11304;DHT22;5707;49.588;12.148;2024-02-16T07:46:21;4.90;99.90
11304;DHT22;5707;49.588;12.148;2024-02-16T07:48:48;5.00;99.90
11304;DHT22;5707;49.588;12.148;2024-02-16T07:51:14;5.00;99.90
11304;DHT22;5707;49.588;12.148;2024-02-16T07:53:39;5.10;99.90
11304;DHT22;5707;49.588;12.148;2024-02-16T07:56:07;5.10;99.90
11304;DHT22;5707;49.588;12.148;2024-02-16T07:58:33;5.30;99.90
11304;DHT22;5707;49.588;12.148;2024-02-16T08:00:58;5.40;99.90
11304;DHT22;5707;49.588;12.148;2024-02-16T08:03:24;5.50;99.90
11304;DHT22;5707;49.588;12.148;2024-02-16T08:05:49;5.50;99.90
11304;DHT22;5707;49.588;12.148;2024-02-16T08:08:15;5.50;99.90
11304;DHT22;5707;49.588;12.148;2024-02-16T08:10:40;5.50;99.90
11304;DHT22;5707;49.588;12.148;2024-02-16T08:13:06;5.60;99.90
11304;DHT22;5707;49.588;12.148;2024-02-16T08:15:32;5.70;99.90
11304;DHT22;5707;49.588;12.148;2024-02-16T08:17:57;5.90;99.90
11304;DHT22;5707;49.588;12.148;2024-02-16T08:20:23;5.90;99.90
11304;DHT22;5707;49.588;12.148;2024-02-16T08:22:49;6.10;99.90
11304;DHT22;5707;49.588;12.148;2024-02-16T08:25:14;6.20;99.90
11304;DHT22;5707;49.588;12.148;2024-02-16T08:27:40;6.30;99.90
11304;DHT22;5707;49.588;12.148;2024-02-16T08:30:06;6.30;99.90
11304;DHT22;5707;49.588;12.148;2024-02-16T08:32:34;6.30;99.90
11304;DHT22;5707;49.588;12.148;2024-02-16T08:34:59;6.40;99.90
11304;DHT22;5707;49.588;12.148;2024-02-16T08:37:25;6.50;99.90
11304;DHT22;5707;49.588;12.148;2024-02-16T08:39:51;6.60;99.90
11304;DHT22;5707;49.588;12.148;2024-02-16T08:42:17;6.60;99.90
11304;DHT22;5707;49.588;12.148;2024-02-16T08:44:43;6.70;99.90
11304;DHT22;5707;49.588;12.148;2024-02-16T08:47:08;6.90;99.90
11304;DHT22;5707;49.588;12.148;2024-02-16T08:49:34;7.10;99.90
11304;DHT22;5707;49.588;12.148;2024-02-16T08:52:00;7.20;99.90
11304;DHT22;5707;49.588;12.148;2024-02-16T08:54:26;7.30;99.90
11304;DHT22;5707;49.588;12.148;2024-02-16T08:56:53;7.50;99.90
11304;DHT22;5707;49.588;12.148;2024-02-16T08:59:19;7.70;99.90
11304;DHT22;5707;49.588;12.148;2024-02-16T09:01:44;7.90;99.90
11304;DHT22;5707;49.588;12.148;2024-02-16T09:04:10;8.10;99.90
11304;DHT22;5707;49.588;12.148;2024-02-16T09:06:35;8.20;99.90
11304;DHT22;5707;49.588;12.148;2024-02-16T09:09:02;8.40;99.90
11304;DHT22;5707;49.588;12.148;2024-02-16T09:11:27;8.60;99.90
11304;DHT22;5707;49.588;12.148;2024-02-16T09:13:53;8.60;99.90
11304;DHT22;5707;49.588;12.148;2024-02-16T09:16:22;8.60;99.90
11304;DHT22;5707;49.588;12.148;2024-02-16T09:18:48;8.70;99.90
11304;DHT22;5707;49.588;12.148;2024-02-16T09:21:13;8.60;99.90
11304;DHT22;5707;49.588;12.148;2024-02-16T09:23:40;8.60;99.90
11304;DHT22;5707;49.588;12.148;2024-02-16T09:26:06;8.70;99.90
11304;DHT22;5707;49.588;12.148;2024-02-16T09:28:39;8.80;99.90
11304;DHT22;5707;49.588;12.148;2024-02-16T09:31:05;8.80;99.90
11304;DHT22;5707;49.588;12.148;2024-02-16T09:33:31;8.80;99.90
11304;DHT22;5707;49.588;12.148;2024-02-16T09:35:57;8.80;99.90
11304;DHT22;5707;49.588;12.148;2024-02-16T09:38:22;8.80;99.90
11304;DHT22;5707;49.588;12.148;2024-02-16T09:40:49;8.80;99.90
11304;DHT22;5707;49.588;12.148;2024-02-16T09:43:25;8.80;99.90
11304;DHT22;5707;49.588;12.148;2024-02-16T09:45:59;9.00;99.90
11304;DHT22;5707;49.588;12.148;2024-02-16T09:48:26;9.20;99.90
11304;DHT22;5707;49.588;12.148;2024-02-16T09:50:57;9.50;99.90
11304;DHT22;5707;49.588;12.148;2024-02-16T09:53:25;9.80;99.90
11304;DHT22;5707;49.588;12.148;2024-02-16T09:55:51;10.10;99.90
11304;DHT22;5707;49.588;12.148;2024-02-16T09:58:18;10.50;99.90
11304;DHT22;5707;49.588;12.148;2024-02-16T10:00:54;10.60;99.90
11304;DHT22;5707;49.588;12.148;2024-02-16T10:03:29;10.70;99.90
11304;DHT22;5707;49.588;12.148;2024-02-16T10:06:09;10.60;99.90
11304;DHT22;5707;49.588;12.148;2024-02-16T10:08:46;10.50;99.90
11304;DHT22;5707;49.588;12.148;2024-02-16T10:11:14;10.50;99.90
11304;DHT22;5707;49.588;12.148;2024-02-16T10:13:40;10.50;99.90
11304;DHT22;5707;49.588;12.148;2024-02-16T10:16:10;10.50;99.90
11304;DHT22;5707;49.588;12.148;2024-02-16T10:18:37;10.50;99.90
11304;DHT22;5707;49.588;12.148;2024-02-16T10:21:03;10.40;99.90
11304;DHT22;5707;49.588;12.148;2024-02-16T10:23:29;10.50;99.90
11304;DHT22;5707;49.588;12.148;2024-02-16T10:25:55;10.80;99.90
11304;DHT22;5707;49.588;12.148;2024-02-16T10:28:20;11.00;99.90
11304;DHT22;5707;49.588;12.148;2024-02-16T10:31:00;11.30;99.90
11304;DHT22;5707;49.588;12.148;2024-02-16T10:33:30;11.40;99.90
11304;DHT22;5707;49.588;12.148;2024-02-16T10:35:57;11.70;99.90
11304;DHT22;5707;49.588;12.148;2024-02-16T10:38:25;11.80;99.90
11304;DHT22;5707;49.588;12.148;2024-02-16T10:40:53;12.00;99.90
11304;DHT22;5707;49.588;12.148;2024-02-16T10:43:20;12.10;99.90
11304;DHT22;5707;49.588;12.148;2024-02-16T10:45:46;12.20;99.90
11304;DHT22;5707;49.588;12.148;2024-02-16T10:48:14;12.40;99.90
11304;DHT22;5707;49.588;12.148;2024-02-16T10:50:41;12.60;99.90
11304;DHT22;5707;49.588;12.148;2024-02-16T10:53:17;12.50;99.90
11304;DHT22;5707;49.588;12.148;2024-02-16T10:55:45;12.50;99.90
11304;DHT22;5707;49.588;12.148;2024-02-16T10:58:11;12.60;99.90
11304;DHT22;5707;49.588;12.148;2024-02-16T11:00:51;12.60;99.90
11304;DHT22;5707;49.588;12.148;2024-02-16T11:03:17;12.50;99.90
11304;DHT22;5707;49.588;12.148;2024-02-16T11:05:48;12.50;99.90
11304;DHT22;5707;49.588;12.148;2024-02-16T11:08:23;12.60;99.90
11304;DHT22;5707;49.588;12.148;2024-02-16T11:10:59;12.60;99.90
11304;DHT22;5707;49.588;12.148;2024-02-16T11:13:27;12.50;99.90
11304;DHT22;5707;49.588;12.148;2024-02-16T11:16:03;12.50;99.90
11304;DHT22;5707;49.588;12.148;2024-02-16T11:18:32;12.50;99.90
11304;DHT22;5707;49.588;12.148;2024-02-16T11:21:02;12.60;99.90
11304;DHT22;5707;49.588;12.148;2024-02-16T11:23:30;12.60;99.90
11304;DHT22;5707;49.588;12.148;2024-02-16T11:26:05;12.70;99.90
11304;DHT22;5707;49.588;12.148;2024-02-16T11:28:37;12.90;99.90
11304;DHT22;5707;49.588;12.148;2024-02-16T11:31:03;13.10;99.90
11304;DHT22;5707;49.588;12.148;2024-02-16T11:33:30;13.20;99.90
11304;DHT22;5707;49.588;12.148;2024-02-16T11:38:21;13.20;99.90
11304;DHT22;5707;49.588;12.148;2024-02-16T11:41:16;13.30;99.90
11304;DHT22;5707;49.588;12.148;2024-02-16T11:43:42;13.40;99.90
11304;DHT22;5707;49.588;12.148;2024-02-16T11:46:12;13.40;99.90
11304;DHT22;5707;49.588;12.148;2024-02-16T11:48:38;13.50;99.90
11304;DHT22;5707;49.588;12.148;2024-02-16T11:51:06;13.50;99.90
11304;DHT22;5707;49.588;12.148;2024-02-16T11:53:32;13.70;99.90
11304;DHT22;5707;49.588;12.148;2024-02-16T11:55:58;13.90;99.90
11304;DHT22;5707;49.588;12.148;2024-02-16T11:58:24;13.80;99.90
11304;DHT22;5707;49.588;12.148;2024-02-16T12:00:51;13.80;99.90
11304;DHT22;5707;49.588;12.148;2024-02-16T12:03:20;14.00;99.90
11304;DHT22;5707;49.588;12.148;2024-02-16T12:05:56;14.10;99.90
11304;DHT22;5707;49.588;12.148;2024-02-16T12:08:22;14.30;99.90
11304;DHT22;5707;49.588;12.148;2024-02-16T12:10:49;14.30;99.90
11304;DHT22;5707;49.588;12.148;2024-02-16T12:13:18;14.40;99.90
11304;DHT22;5707;49.588;12.148;2024-02-16T12:15:48;14.40;99.90
11304;DHT22;5707;49.588;12.148;2024-02-16T12:18:25;14.50;99.90
11304;DHT22;5707;49.588;12.148;2024-02-16T12:23:26;14.60;99.90
11304;DHT22;5707;49.588;12.148;2024-02-16T12:29:14;14.80;99.90
11304;DHT22;5707;49.588;12.148;2024-02-16T12:31:44;14.90;99.90
11304;DHT22;5707;49.588;12.148;2024-02-16T12:34:11;15.20;99.90
11304;DHT22;5707;49.588;12.148;2024-02-16T12:36:38;15.60;99.00
11304;DHT22;5707;49.588;12.148;2024-02-16T12:39:05;15.80;97.90
11304;DHT22;5707;49.588;12.148;2024-02-16T12:41:32;16.00;97.40
11304;DHT22;5707;49.588;12.148;2024-02-16T12:43:57;16.00;97.10
11304;DHT22;5707;49.588;12.148;2024-02-16T12:46:23;16.10;96.70
11304;DHT22;5707;49.588;12.148;2024-02-16T12:48:50;16.20;97.10
11304;DHT22;5707;49.588;12.148;2024-02-16T12:51:16;16.50;96.40
11304;DHT22;5707;49.588;12.148;2024-02-16T12:53:42;16.60;95.80
11304;DHT22;5707;49.588;12.148;2024-02-16T12:56:08;16.80;95.30
11304;DHT22;5707;49.588;12.148;2024-02-16T12:58:35;16.80;94.60
11304;DHT22;5707;49.588;12.148;2024-02-16T13:01:01;16.80;94.90
11304;DHT22;5707;49.588;12.148;2024-02-16T13:03:27;16.90;94.30
11304;DHT22;5707;49.588;12.148;2024-02-16T13:05:52;16.80;93.80
11304;DHT22;5707;49.588;12.148;2024-02-16T13:08:18;16.60;94.00
11304;DHT22;5707;49.588;12.148;2024-02-16T13:10:43;16.40;94.80
11304;DHT22;5707;49.588;12.148;2024-02-16T13:13:09;16.20;95.60
11304;DHT22;5707;49.588;12.148;2024-02-16T13:15:35;16.00;95.00
11304;DHT22;5707;49.588;12.148;2024-02-16T13:18:00;15.80;95.50
11304;DHT22;5707;49.588;12.148;2024-02-16T13:20:26;15.70;96.10
11304;DHT22;5707;49.588;12.148;2024-02-16T13:22:51;15.60;96.20
11304;DHT22;5707;49.588;12.148;2024-02-16T13:25:19;15.50;96.50
11304;DHT22;5707;49.588;12.148;2024-02-16T13:27:44;15.40;97.30
11304;DHT22;5707;49.588;12.148;2024-02-16T13:30:10;15.40;97.20
11304;DHT22;5707;49.588;12.148;2024-02-16T13:32:36;15.30;97.50
11304;DHT22;5707;49.588;12.148;2024-02-16T13:35:05;15.30;97.80
11304;DHT22;5707;49.588;12.148;2024-02-16T13:37:31;15.30;97.70
11304;DHT22;5707;49.588;12.148;2024-02-16T13:39:57;15.30;97.90
11304;DHT22;5707;49.588;12.148;2024-02-16T13:42:22;15.30;98.10
11304;DHT22;5707;49.588;12.148;2024-02-16T13:44:48;15.20;98.40
11304;DHT22;5707;49.588;12.148;2024-02-16T13:47:13;15.30;98.30
11304;DHT22;5707;49.588;12.148;2024-02-16T13:49:39;15.30;98.20
11304;DHT22;5707;49.588;12.148;2024-02-16T13:52:05;15.30;98.10
11304;DHT22;5707;49.588;12.148;2024-02-16T13:54:30;15.40;98.30
11304;DHT22;5707;49.588;12.148;2024-02-16T13:56:56;15.50;98.10
11304;DHT22;5707;49.588;12.148;2024-02-16T13:59:21;15.50;98.00
11304;DHT22;5707;49.588;12.148;2024-02-16T14:01:48;15.60;97.90
11304;DHT22;5707;49.588;12.148;2024-02-16T14:04:14;15.50;98.00
11304;DHT22;5707;49.588;12.148;2024-02-16T14:06:39;15.40;98.60
11304;DHT22;5707;49.588;12.148;2024-02-16T14:09:05;15.30;98.20
11304;DHT22;5707;49.588;12.148;2024-02-16T14:11:35;15.20;98.70
11304;DHT22;5707;49.588;12.148;2024-02-16T14:14:01;15.10;99.00
11304;DHT22;5707;49.588;12.148;2024-02-16T14:16:27;15.10;99.40
11304;DHT22;5707;49.588;12.148;2024-02-16T14:18:52;15.00;99.50
11304;DHT22;5707;49.588;12.148;2024-02-16T14:21:18;15.00;99.50
11304;DHT22;5707;49.588;12.148;2024-02-16T14:23:43;14.90;99.90
11304;DHT22;5707;49.588;12.148;2024-02-16T14:26:09;14.80;99.90
11304;DHT22;5707;49.588;12.148;2024-02-16T14:28:35;14.80;99.90
11304;DHT22;5707;49.588;12.148;2024-02-16T14:31:01;14.80;99.90
11304;DHT22;5707;49.588;12.148;2024-02-16T14:33:26;14.70;99.90
11304;DHT22;5707;49.588;12.148;2024-02-16T14:35:52;14.60;99.90
11304;DHT22;5707;49.588;12.148;2024-02-16T14:38:17;14.60;99.90
11304;DHT22;5707;49.588;12.148;2024-02-16T14:40:43;14.50;99.90
11304;DHT22;5707;49.588;12.148;2024-02-16T14:43:08;14.30;99.90
11304;DHT22;5707;49.588;12.148;2024-02-16T14:45:34;14.10;99.90
11304;DHT22;5707;49.588;12.148;2024-02-16T14:48:04;14.00;99.90
11304;DHT22;5707;49.588;12.148;2024-02-16T14:50:30;13.80;99.90
11304;DHT22;5707;49.588;12.148;2024-02-16T14:52:56;13.70;99.90
11304;DHT22;5707;49.588;12.148;2024-02-16T14:55:21;13.50;99.90
11304;DHT22;5707;49.588;12.148;2024-02-16T14:57:47;13.30;99.90
11304;DHT22;5707;49.588;12.148;2024-02-16T15:00:13;13.10;99.90
11304;DHT22;5707;49.588;12.148;2024-02-16T15:02:39;13.00;99.90
11304;DHT22;5707;49.588;12.148;2024-02-16T15:05:08;12.80;99.90
11304;DHT22;5707;49.588;12.148;2024-02-16T15:07:34;12.70;99.90
11304;DHT22;5707;49.588;12.148;2024-02-16T15:10:00;12.60;99.90
11304;DHT22;5707;49.588;12.148;2024-02-16T15:12:25;12.40;99.90
11304;DHT22;5707;49.588;12.148;2024-02-16T15:14:51;12.30;99.90
11304;DHT22;5707;49.588;12.148;2024-02-16T15:17:17;12.20;99.90
11304;DHT22;5707;49.588;12.148;2024-02-16T15:19:43;12.10;99.90
11304;DHT22;5707;49.588;12.148;2024-02-16T15:22:08;12.00;99.90
11304;DHT22;5707;49.588;12.148;2024-02-16T15:24:34;11.90;99.90
11304;DHT22;5707;49.588;12.148;2024-02-16T15:27:00;11.80;99.90
11304;DHT22;5707;49.588;12.148;2024-02-16T15:29:27;11.70;99.90
11304;DHT22;5707;49.588;12.148;2024-02-16T15:31:52;11.60;99.90
11304;DHT22;5707;49.588;12.148;2024-02-16T15:34:18;11.50;99.90
11304;DHT22;5707;49.588;12.148;2024-02-16T15:36:44;11.40;99.90
11304;DHT22;5707;49.588;12.148;2024-02-16T15:39:09;11.40;99.90
11304;DHT22;5707;49.588;12.148;2024-02-16T15:41:36;11.30;99.90
11304;DHT22;5707;49.588;12.148;2024-02-16T15:44:01;11.20;99.90